createdAt,value
2022-11-19T00:01:46.159Z,90.30
2022-11-19T00:04:43.559Z,89.80
2022-11-19T00:07:40.211Z,89.12
2022-11-19T00:10:38.213Z,88.98
2022-11-19T00:13:35.636Z,89.82
2022-11-19T00:16:33.384Z,89.00
2022-11-19T00:19:30.156Z,90.37
2022-11-19T00:22:27.465Z,89.55
2022-11-19T00:25:25.623Z,89.66
2022-11-19T00:28:23.190Z,89.09
2022-11-19T00:31:20.128Z,90.22
2022-11-19T00:34:17.164Z,89.16
2022-11-19T00:37:14.488Z,89.11
2022-11-19T00:40:12.807Z,88.57
2022-11-19T00:43:29.043Z,88.66
2022-11-19T00:46:30.897Z,88.80
2022-11-19T00:49:28.263Z,89.59
2022-11-19T00:52:25.492Z,89.45
2022-11-19T00:55:22.493Z,89.80
2022-11-19T00:58:19.600Z,89.94
2022-11-19T01:01:18.163Z,89.27
2022-11-19T01:04:15.261Z,88.76
2022-11-19T01:07:12.660Z,89.01
2022-11-19T01:10:10.342Z,89.69
2022-11-19T01:13:25.517Z,89.94
2022-11-19T01:16:27.545Z,89.87
2022-11-19T01:19:24.517Z,90.48
2022-11-19T01:22:21.250Z,90.46
2022-11-19T01:25:18.501Z,90.46
2022-11-19T01:28:15.616Z,89.26
2022-11-19T01:31:17.240Z,89.66
2022-11-19T01:34:14.170Z,90.28
2022-11-19T01:37:11.139Z,89.98
2022-11-19T01:40:09.240Z,89.99
2022-11-19T01:43:06.035Z,90.44
2022-11-19T01:46:03.617Z,90.06
2022-11-19T01:49:09.511Z,90.60
2022-11-19T01:52:06.573Z,91.37
2022-11-19T01:55:03.285Z,91.03
2022-11-19T01:58:00.498Z,91.16
2022-11-19T02:00:57.628Z,91.17
2022-11-19T02:03:54.393Z,89.32
2022-11-19T02:06:51.261Z,88.84
2022-11-19T02:09:48.262Z,89.20
2022-11-19T02:12:56.723Z,90.12
2022-11-19T02:15:57.552Z,90.51
2022-11-19T02:19:17.993Z,90.37
2022-11-19T02:22:50.673Z,90.34
2022-11-19T02:26:15.101Z,91.54
2022-11-19T02:29:30.633Z,90.66
2022-11-19T02:32:36.225Z,90.67
2022-11-19T02:35:44.960Z,90.54
2022-11-19T02:38:49.185Z,90.47
2022-11-19T02:42:04.375Z,91.17
2022-11-19T02:45:10.659Z,89.60
2022-11-19T02:48:28.026Z,90.32
2022-11-19T02:51:25.392Z,91.62
2022-11-19T02:54:22.112Z,91.04
2022-11-19T02:57:19.457Z,92.01
2022-11-19T03:00:35.405Z,91.43
2022-11-19T03:03:50.708Z,90.21
2022-11-19T03:06:48.825Z,91.29
2022-11-19T03:09:53.033Z,91.71
2022-11-19T03:12:56.617Z,91.90
2022-11-19T03:16:13.673Z,92.07
2022-11-19T03:19:28.508Z,91.66
2022-11-19T03:22:27.476Z,91.40
2022-11-19T03:25:29.334Z,91.99
2022-11-19T03:28:29.306Z,91.46
2022-11-19T03:31:26.525Z,91.67
2022-11-19T03:34:23.674Z,92.17
2022-11-19T03:37:21.363Z,92.38
2022-11-19T03:40:18.866Z,93.03
2022-11-19T03:43:18.317Z,92.57
2022-11-19T03:46:16.379Z,91.92
2022-11-19T03:49:13.525Z,91.57
2022-11-19T03:52:18.646Z,92.57
2022-11-19T03:55:16.374Z,92.35
2022-11-19T03:58:13.527Z,92.44
2022-11-19T04:01:10.817Z,92.61
2022-11-19T04:04:27.132Z,92.91
2022-11-19T04:07:24.525Z,93.10
2022-11-19T04:10:21.209Z,92.85
2022-11-19T04:13:18.473Z,92.31
2022-11-19T04:16:15.555Z,92.55
2022-11-19T04:19:12.587Z,92.53
2022-11-19T04:22:09.427Z,92.38
2022-11-19T04:25:06.795Z,91.85
2022-11-19T04:28:04.393Z,91.47
2022-11-19T04:31:01.322Z,91.66
2022-11-19T04:33:58.417Z,92.37
2022-11-19T04:36:55.283Z,91.92
2022-11-19T04:39:52.094Z,92.37
2022-11-19T04:42:49.662Z,92.14
2022-11-19T04:45:46.777Z,91.69
2022-11-19T04:48:44.444Z,90.93
2022-11-19T04:51:41.664Z,90.46
2022-11-19T04:54:39.312Z,90.34
2022-11-19T04:57:36.115Z,89.74
2022-11-19T05:00:33.535Z,89.28
2022-11-19T05:03:30.330Z,89.83
2022-11-19T05:06:27.129Z,89.45
2022-11-19T05:09:24.500Z,89.76
2022-11-19T05:12:21.591Z,90.69
2022-11-19T05:15:18.649Z,90.07
2022-11-19T05:18:15.577Z,89.82
2022-11-19T05:21:12.324Z,88.13
2022-11-19T05:24:09.385Z,88.08
2022-11-19T05:27:06.420Z,88.17
2022-11-19T05:30:04.500Z,87.69
2022-11-19T05:33:01.659Z,87.59
2022-11-19T05:35:58.653Z,88.03
2022-11-19T05:38:57.879Z,87.10
2022-11-19T05:41:55.396Z,85.63
2022-11-19T05:44:52.606Z,85.17
2022-11-19T05:47:54.566Z,85.43
2022-11-19T05:50:53.916Z,85.71
2022-11-19T05:53:52.501Z,85.47
2022-11-19T05:56:49.589Z,86.44
2022-11-19T05:59:46.482Z,85.91
2022-11-19T06:02:43.407Z,85.71
2022-11-19T06:05:40.920Z,85.97
2022-11-19T06:08:38.559Z,84.59
2022-11-19T06:11:50.974Z,85.46
2022-11-19T06:14:48.626Z,86.01
2022-11-19T06:17:45.802Z,86.29
2022-11-19T06:20:42.475Z,86.32
2022-11-19T06:23:39.677Z,86.89
2022-11-19T06:26:36.521Z,87.09
2022-11-19T06:29:33.808Z,87.31
2022-11-19T06:32:30.627Z,86.52
2022-11-19T06:35:27.305Z,86.22
2022-11-19T06:38:24.185Z,85.81
2022-11-19T06:41:21.345Z,85.85
2022-11-19T06:44:18.727Z,86.92
2022-11-19T06:47:15.636Z,86.03
2022-11-19T06:50:12.841Z,85.34
2022-11-19T06:53:10.591Z,85.95
2022-11-19T06:56:07.899Z,86.12
2022-11-19T06:59:05.732Z,85.79
2022-11-19T07:02:02.707Z,85.20
2022-11-19T07:04:59.385Z,84.29
2022-11-19T07:08:01.571Z,84.75
2022-11-19T07:11:00.904Z,83.74
2022-11-19T07:13:58.929Z,83.28
2022-11-19T07:16:56.244Z,84.05
2022-11-19T07:19:53.769Z,84.57
2022-11-19T07:22:53.667Z,85.15
2022-11-19T07:26:00.272Z,84.47
2022-11-19T07:29:01.738Z,84.25
2022-11-19T07:32:01.463Z,83.25
2022-11-19T07:34:58.953Z,83.30
2022-11-19T07:37:56.555Z,83.45
2022-11-19T07:40:54.766Z,83.91
2022-11-19T07:43:51.705Z,84.31
2022-11-19T07:46:48.378Z,83.97
2022-11-19T07:49:45.743Z,83.39
2022-11-19T07:52:42.822Z,82.43
2022-11-19T07:55:39.690Z,82.63
2022-11-19T07:58:36.702Z,81.34
2022-11-19T08:01:33.759Z,80.60
2022-11-19T08:04:30.884Z,80.58
2022-11-19T08:07:27.754Z,79.21
2022-11-19T08:10:31.463Z,78.89
2022-11-19T08:13:28.719Z,77.74
2022-11-19T08:16:44.205Z,77.29
2022-11-19T08:19:41.885Z,77.54
2022-11-19T08:22:41.996Z,75.67
2022-11-19T08:25:41.863Z,74.64
2022-11-19T08:28:38.585Z,75.03
2022-11-19T08:31:35.450Z,74.87
2022-11-19T08:34:32.316Z,74.04
2022-11-19T08:37:29.456Z,74.55
2022-11-19T08:40:26.416Z,73.54
2022-11-19T08:43:24.965Z,71.88
2022-11-19T08:46:22.434Z,73.57
2022-11-19T08:49:20.035Z,72.85
2022-11-19T08:52:17.793Z,72.47
2022-11-19T08:55:14.799Z,72.19
2022-11-19T08:58:11.586Z,71.36
2022-11-19T09:01:12.162Z,70.40
2022-11-19T09:04:09.825Z,70.37
2022-11-19T09:07:06.866Z,70.50
2022-11-19T09:10:03.897Z,70.24
2022-11-19T09:13:04.594Z,70.53
2022-11-19T09:16:01.643Z,69.84
2022-11-19T09:18:58.293Z,68.19
2022-11-19T09:21:55.844Z,69.71
2022-11-19T09:24:52.868Z,67.90
2022-11-19T09:27:49.893Z,68.73
2022-11-19T09:31:00.918Z,69.76
2022-11-19T09:33:57.760Z,68.24
2022-11-19T09:36:54.994Z,68.32
2022-11-19T09:39:55.727Z,66.54
2022-11-19T09:43:34.270Z,66.42
2022-11-19T09:46:40.754Z,66.47
2022-11-19T09:49:41.773Z,68.99
2022-11-19T09:52:43.992Z,68.17
2022-11-19T09:55:43.941Z,66.48
2022-11-19T09:58:45.299Z,64.52
2022-11-19T10:01:42.336Z,63.93
2022-11-19T10:04:39.859Z,64.93
2022-11-19T10:08:05.828Z,64.93
2022-11-19T10:11:21.216Z,64.81
2022-11-19T10:14:27.415Z,65.68
2022-11-19T10:17:33.089Z,65.75
2022-11-19T10:20:59.565Z,64.41
2022-11-19T10:24:20.157Z,64.93
2022-11-19T10:27:41.329Z,64.87
2022-11-19T10:30:38.495Z,63.01
2022-11-19T10:34:13.044Z,64.34
2022-11-19T10:37:16.818Z,65.07
2022-11-19T10:40:18.735Z,63.45
2022-11-19T10:43:46.369Z,63.70
2022-11-19T10:46:44.091Z,63.26
2022-11-19T10:49:42.050Z,63.11
2022-11-19T10:52:41.911Z,61.42
2022-11-19T10:55:41.147Z,61.75
2022-11-19T10:58:54.635Z,60.41
2022-11-19T11:02:00.411Z,60.19
2022-11-19T11:05:04.718Z,58.60
2022-11-19T11:08:01.995Z,59.91
2022-11-19T11:10:59.931Z,61.26
2022-11-19T11:14:17.577Z,60.01
2022-11-19T11:17:20.261Z,59.17
2022-11-19T11:20:17.753Z,61.46
2022-11-19T11:23:19.791Z,60.84
2022-11-19T11:26:34.907Z,60.11
2022-11-19T11:29:31.467Z,61.45
2022-11-19T11:32:30.613Z,58.52
2022-11-19T11:35:31.901Z,60.83
2022-11-19T11:38:28.996Z,60.50
2022-11-19T11:44:57.978Z,59.56
2022-11-19T11:47:54.721Z,58.69
2022-11-19T11:50:51.700Z,56.49
2022-11-19T11:53:50.665Z,58.02
2022-11-19T11:56:47.680Z,55.90
2022-11-19T11:59:45.158Z,56.76
2022-11-19T12:02:43.209Z,56.82
2022-11-19T12:05:44.321Z,55.48
2022-11-19T12:09:23.838Z,55.79
2022-11-19T12:12:33.108Z,56.47
2022-11-19T12:15:57.292Z,57.46
2022-11-19T12:19:14.607Z,57.76
2022-11-19T12:22:30.012Z,57.06
2022-11-19T12:25:49.938Z,57.19
2022-11-19T12:29:08.076Z,57.12
2022-11-19T12:32:35.810Z,55.93
2022-11-19T12:35:42.082Z,55.69
2022-11-19T12:38:42.743Z,54.69
2022-11-19T12:41:54.264Z,50.76
2022-11-19T12:45:13.503Z,52.40
2022-11-19T12:48:25.995Z,52.41
2022-11-19T12:52:00.061Z,55.39
2022-11-19T12:55:14.315Z,56.52
2022-11-19T12:58:21.315Z,56.23
2022-11-19T13:01:23.339Z,57.60
2022-11-19T13:04:40.523Z,57.72
2022-11-19T13:07:39.980Z,55.96
2022-11-19T13:10:44.776Z,55.43
2022-11-19T13:13:44.629Z,56.12
2022-11-19T13:16:41.708Z,57.29
2022-11-19T13:19:38.790Z,56.16
2022-11-19T13:22:36.893Z,57.37
2022-11-19T13:25:40.203Z,58.98
2022-11-19T13:29:02.116Z,61.34
2022-11-19T13:32:12.833Z,59.96
2022-11-19T13:35:46.001Z,59.48
2022-11-19T13:38:55.313Z,58.66
2022-11-19T13:42:11.982Z,56.71
2022-11-19T13:45:14.568Z,54.58
2022-11-19T13:48:25.108Z,56.09
2022-11-19T13:51:29.302Z,58.64
2022-11-19T13:54:29.440Z,59.68
2022-11-19T13:57:32.156Z,59.50
2022-11-19T14:00:28.786Z,59.82
2022-11-19T14:03:54.273Z,61.35
2022-11-19T14:07:13.826Z,60.95
2022-11-19T14:10:38.384Z,61.86
2022-11-19T14:13:45.280Z,62.95
2022-11-19T14:17:10.551Z,62.59
2022-11-19T14:20:54.512Z,61.09
2022-11-19T14:24:10.734Z,61.20
2022-11-19T14:27:18.756Z,61.67
2022-11-19T14:30:17.701Z,63.31
2022-11-19T14:33:42.964Z,63.21
2022-11-19T14:36:58.784Z,61.93
2022-11-19T14:40:07.927Z,63.09
2022-11-19T14:43:23.472Z,63.65
2022-11-19T14:46:25.532Z,63.47
2022-11-19T14:49:28.942Z,62.97
2022-11-19T14:52:39.484Z,63.75
2022-11-19T14:55:36.761Z,65.81
2022-11-19T14:58:33.676Z,66.71
2022-11-19T15:01:30.846Z,68.37
2022-11-19T15:04:36.451Z,68.75
2022-11-19T15:07:33.706Z,68.88
2022-11-19T15:10:31.858Z,70.65
2022-11-19T15:13:30.122Z,69.85
2022-11-19T15:16:26.962Z,71.40
2022-11-19T15:19:50.851Z,69.63
2022-11-19T15:23:08.915Z,70.53
2022-11-19T15:26:11.464Z,70.98
2022-11-19T15:29:47.263Z,71.84
2022-11-19T15:32:56.632Z,73.21
2022-11-19T15:36:00.049Z,72.94
2022-11-19T15:39:09.701Z,72.40
2022-11-19T15:42:12.046Z,73.15
2022-11-19T15:45:15.682Z,73.81
2022-11-19T15:48:20.431Z,74.62
2022-11-19T15:51:18.169Z,74.87
2022-11-19T15:54:15.219Z,75.17
2022-11-19T15:57:24.742Z,75.85
2022-11-19T16:00:22.561Z,76.46
2022-11-19T16:03:20.153Z,75.39
2022-11-19T16:06:17.041Z,74.92
2022-11-19T16:09:19.477Z,75.58
2022-11-19T16:12:43.396Z,75.88
2022-11-19T16:16:06.299Z,77.33
2022-11-19T16:19:03.994Z,78.01
2022-11-19T16:22:02.006Z,78.19
2022-11-19T16:25:04.760Z,78.78
2022-11-19T16:28:07.219Z,79.07
2022-11-19T16:31:05.040Z,79.15
2022-11-19T16:34:02.107Z,78.86
2022-11-19T16:36:59.044Z,78.07
2022-11-19T16:39:56.004Z,77.42
2022-11-19T16:42:54.932Z,74.93
2022-11-19T16:45:52.127Z,76.25
2022-11-19T16:48:48.935Z,75.53
2022-11-19T16:51:53.349Z,75.94
2022-11-19T16:54:51.097Z,76.40
2022-11-19T16:57:56.118Z,77.01
2022-11-19T17:00:55.469Z,77.57
2022-11-19T17:03:52.866Z,77.45
2022-11-19T17:06:50.127Z,78.76
2022-11-19T17:09:47.890Z,79.74
2022-11-19T17:12:54.973Z,81.00
2022-11-19T17:15:52.360Z,80.23
2022-11-19T17:18:50.444Z,78.51
2022-11-19T17:21:51.869Z,77.91
2022-11-19T17:24:49.210Z,78.16
2022-11-19T17:27:49.109Z,79.04
2022-11-19T17:30:46.148Z,79.79
2022-11-19T17:34:07.843Z,79.76
2022-11-19T17:37:07.646Z,81.00
2022-11-19T17:40:05.401Z,81.90
2022-11-19T17:43:21.597Z,81.30
2022-11-19T17:46:18.837Z,82.29
2022-11-19T17:49:16.111Z,81.25
2022-11-19T17:52:27.034Z,79.88
2022-11-19T17:55:24.246Z,79.53
2022-11-19T17:58:21.309Z,79.26
2022-11-19T18:01:19.275Z,78.96
2022-11-19T18:04:17.505Z,79.63
2022-11-19T18:07:15.448Z,80.79
2022-11-19T18:10:13.219Z,81.34
2022-11-19T18:13:11.317Z,81.59
2022-11-19T18:16:16.974Z,82.00
2022-11-19T18:19:23.323Z,81.91
2022-11-19T18:22:20.984Z,82.74
2022-11-19T18:25:18.769Z,82.34
2022-11-19T18:28:16.181Z,82.83
2022-11-19T18:31:33.283Z,82.72
2022-11-19T18:34:30.165Z,81.54
2022-11-19T18:37:28.215Z,82.17
2022-11-19T18:40:26.475Z,82.01
2022-11-19T18:43:42.272Z,82.07
2022-11-19T18:46:39.991Z,83.04
2022-11-19T18:49:37.645Z,82.44
2022-11-19T18:52:35.361Z,83.32
2022-11-19T18:55:33.258Z,83.45
2022-11-19T18:58:30.184Z,82.73
2022-11-19T19:01:27.684Z,82.75
2022-11-19T19:04:25.189Z,83.58
2022-11-19T19:07:22.075Z,83.29
2022-11-19T19:10:20.198Z,83.56
2022-11-19T19:13:17.115Z,85.81
2022-11-19T19:16:14.063Z,86.49
2022-11-19T19:19:11.429Z,85.92
2022-11-19T19:22:09.199Z,85.18
2022-11-19T19:25:06.234Z,85.44
2022-11-19T19:28:03.427Z,86.28
2022-11-19T19:31:01.123Z,85.37
2022-11-19T19:33:58.636Z,83.40
2022-11-19T19:36:55.802Z,83.74
2022-11-19T19:39:53.255Z,84.65
2022-11-19T19:42:50.293Z,87.48
2022-11-19T19:45:49.068Z,88.49
2022-11-19T19:48:50.209Z,87.31
2022-11-19T19:51:46.913Z,85.50
2022-11-19T19:54:43.953Z,84.73
2022-11-19T19:57:40.915Z,85.08
2022-11-19T20:00:38.841Z,84.61
2022-11-19T20:03:36.721Z,85.01
2022-11-19T20:06:35.369Z,83.98
2022-11-19T20:09:31.961Z,83.48
2022-11-19T20:12:49.122Z,85.93
2022-11-19T20:15:48.209Z,86.57
2022-11-19T20:18:45.951Z,86.11
2022-11-19T20:21:43.291Z,85.90
2022-11-19T20:24:40.216Z,85.83
2022-11-19T20:27:37.178Z,84.58
2022-11-19T20:30:34.081Z,82.15
2022-11-19T20:33:31.205Z,80.76
2022-11-19T20:36:29.758Z,78.92
2022-11-19T20:39:27.192Z,79.91
2022-11-19T20:42:42.372Z,80.66
2022-11-19T20:45:39.326Z,84.46
2022-11-19T20:48:36.287Z,86.11
2022-11-19T20:51:35.062Z,86.46
2022-11-19T20:54:32.470Z,87.11
2022-11-19T20:57:29.917Z,87.74
2022-11-19T21:00:27.465Z,86.49
2022-11-19T21:03:24.947Z,84.06
2022-11-19T21:06:22.109Z,80.51
2022-11-19T21:09:19.935Z,79.37
2022-11-19T21:12:17.019Z,78.08
2022-11-19T21:15:14.904Z,80.50
2022-11-19T21:18:12.194Z,79.45
2022-11-19T21:21:10.290Z,78.01
2022-11-19T21:24:07.762Z,77.02
2022-11-19T21:27:04.764Z,78.64
2022-11-19T21:30:02.122Z,81.60
2022-11-19T21:32:59.994Z,82.04
2022-11-19T21:35:57.278Z,82.53
2022-11-19T21:38:54.222Z,83.85
2022-11-19T21:41:51.284Z,82.90
2022-11-19T21:44:48.159Z,80.10
2022-11-19T21:47:45.185Z,81.21
2022-11-19T21:50:42.254Z,82.26
2022-11-19T21:53:41.709Z,83.36
2022-11-19T21:56:39.261Z,83.23
2022-11-19T21:59:36.038Z,83.32
2022-11-19T22:02:32.901Z,84.21
2022-11-19T22:05:30.018Z,85.36
2022-11-19T22:08:32.044Z,85.27
2022-11-19T22:11:29.114Z,84.91
2022-11-19T22:14:26.001Z,83.88
2022-11-19T22:17:23.246Z,84.21
2022-11-19T22:20:20.366Z,86.74
2022-11-19T22:23:22.961Z,90.35
2022-11-19T22:26:21.028Z,93.73
2022-11-19T22:29:18.375Z,93.88
2022-11-19T22:32:14.950Z,91.92
2022-11-19T22:35:12.327Z,90.31
2022-11-19T22:38:09.242Z,91.30
2022-11-19T22:41:11.419Z,94.12
2022-11-19T22:44:08.003Z,92.52
2022-11-19T22:47:04.982Z,93.37
2022-11-19T22:50:02.135Z,95.29
2022-11-19T22:52:59.315Z,94.77
2022-11-19T22:56:00.816Z,94.80
2022-11-19T22:58:58.299Z,97.16
2022-11-19T23:01:54.907Z,96.16
2022-11-19T23:04:52.304Z,90.73
2022-11-19T23:07:49.880Z,88.57
2022-11-19T23:10:48.194Z,90.10
2022-11-19T23:13:45.259Z,93.16
2022-11-19T23:16:41.836Z,90.59
2022-11-19T23:19:38.981Z,89.58
2022-11-19T23:22:36.081Z,91.35
2022-11-19T23:25:33.004Z,93.79
2022-11-19T23:28:31.187Z,93.04
2022-11-19T23:31:30.189Z,89.95
2022-11-19T23:34:27.308Z,87.07
2022-11-19T23:37:24.404Z,87.84
2022-11-19T23:40:21.239Z,89.84
2022-11-19T23:43:18.415Z,88.27
2022-11-19T23:46:20.001Z,87.18
2022-11-19T23:49:17.201Z,85.01
2022-11-19T23:52:14.024Z,84.19
2022-11-19T23:55:11.301Z,86.77
2022-11-19T23:58:08.004Z,85.63
